sensor_id;sensor_type;location;lat;lon;timestamp;pressure;altitude;pressure_sealevel;temperature;humidity
34931;BME280;21134;49.646;8.560;2023-03-18T00:00:43;100001.59;;;9.16;90.11
34931;BME280;21134;49.646;8.560;2023-03-18T00:03:10;100005.00;;;9.16;90.35
34931;BME280;21134;49.646;8.560;2023-03-18T00:05:37;100011.78;;;9.17;90.06
34931;BME280;21134;49.646;8.560;2023-03-18T00:08:05;100005.81;;;9.18;90.65
34931;BME280;21134;49.646;8.560;2023-03-18T00:10:33;100006.66;;;9.19;90.12
34931;BME280;21134;49.646;8.560;2023-03-18T00:13:00;100005.00;;;9.19;90.39
34931;BME280;21134;49.646;8.560;2023-03-18T00:15:29;100010.94;;;9.20;90.51
34931;BME280;21134;49.646;8.560;2023-03-18T00:17:55;100012.66;;;9.19;90.63
34931;BME280;21134;49.646;8.560;2023-03-18T00:20:23;100010.06;;;9.21;90.30
34931;BME280;21134;49.646;8.560;2023-03-18T00:23:03;100010.94;;;9.20;91.05
34931;BME280;21134;49.646;8.560;2023-03-18T00:25:29;100014.34;;;9.20;91.08
34931;BME280;21134;49.646;8.560;2023-03-18T00:27:58;100017.72;;;9.21;91.10
34931;BME280;21134;49.646;8.560;2023-03-18T00:30:24;100014.34;;;9.20;90.84
34931;BME280;21134;49.646;8.560;2023-03-18T00:32:51;100020.28;;;9.22;90.39
34931;BME280;21134;49.646;8.560;2023-03-18T00:35:18;100018.56;;;9.21;90.63
34931;BME280;21134;49.646;8.560;2023-03-18T00:37:45;100023.69;;;9.23;91.12
34931;BME280;21134;49.646;8.560;2023-03-18T00:40:13;100021.13;;;9.23;91.30
34931;BME280;21134;49.646;8.560;2023-03-18T00:42:45;100025.38;;;9.24;91.20
34931;BME280;21134;49.646;8.560;2023-03-18T00:45:16;100022.84;;;9.22;91.02
34931;BME280;21134;49.646;8.560;2023-03-18T00:47:43;100038.16;;;9.21;90.87
34931;BME280;21134;49.646;8.560;2023-03-18T00:50:10;100038.16;;;9.21;91.33
34931;BME280;21134;49.646;8.560;2023-03-18T00:52:37;100034.75;;;9.20;91.11
34931;BME280;21134;49.646;8.560;2023-03-18T00:55:05;100029.66;;;9.20;91.17
34931;BME280;21134;49.646;8.560;2023-03-18T00:57:32;100022.84;;;9.19;91.12
34931;BME280;21134;49.646;8.560;2023-03-18T00:59:59;100027.09;;;9.20;91.21
34931;BME280;21134;49.646;8.560;2023-03-18T01:02:28;100029.63;;;9.23;91.02
34931;BME280;21134;49.646;8.560;2023-03-18T01:04:54;100028.78;;;9.26;90.78
34931;BME280;21134;49.646;8.560;2023-03-18T01:07:22;100033.03;;;9.27;90.14
34931;BME280;21134;49.646;8.560;2023-03-18T01:09:49;100034.72;;;9.31;89.60
34931;BME280;21134;49.646;8.560;2023-03-18T01:12:15;100035.56;;;9.33;89.45
34931;BME280;21134;49.646;8.560;2023-03-18T01:14:42;100035.56;;;9.36;88.92
34931;BME280;21134;49.646;8.560;2023-03-18T01:17:09;100036.38;;;9.40;88.55
34931;BME280;21134;49.646;8.560;2023-03-18T01:19:37;100026.19;;;9.40;88.26
34931;BME280;21134;49.646;8.560;2023-03-18T01:22:04;100036.38;;;9.43;88.53
34931;BME280;21134;49.646;8.560;2023-03-18T01:24:30;100036.38;;;9.43;88.51
34931;BME280;21134;49.646;8.560;2023-03-18T01:26:57;100039.81;;;9.42;88.68
34931;BME280;21134;49.646;8.560;2023-03-18T01:29:24;100042.34;;;9.43;88.90
34931;BME280;21134;49.646;8.560;2023-03-18T01:31:50;100039.78;;;9.40;88.71
34931;BME280;21134;49.646;8.560;2023-03-18T01:34:17;100038.94;;;9.43;88.66
34931;BME280;21134;49.646;8.560;2023-03-18T01:36:45;100038.91;;;9.44;88.72
34931;BME280;21134;49.646;8.560;2023-03-18T01:39:12;100034.69;;;9.45;88.35
34931;BME280;21134;49.646;8.560;2023-03-18T01:41:39;100031.25;;;9.47;87.86
34931;BME280;21134;49.646;8.560;2023-03-18T01:44:11;100036.31;;;9.53;86.95
34931;BME280;21134;49.646;8.560;2023-03-18T01:46:40;100034.63;;;9.52;86.84
34931;BME280;21134;49.646;8.560;2023-03-18T01:49:10;100035.50;;;9.51;86.98
34931;BME280;21134;49.646;8.560;2023-03-18T01:51:39;100028.69;;;9.52;87.38
34931;BME280;21134;49.646;8.560;2023-03-18T01:54:08;100030.38;;;9.54;87.17
34931;BME280;21134;49.646;8.560;2023-03-18T01:56:38;100028.66;;;9.53;87.04
34931;BME280;21134;49.646;8.560;2023-03-18T01:59:05;100034.66;;;9.54;86.96
34931;BME280;21134;49.646;8.560;2023-03-18T02:01:37;100031.22;;;9.53;87.21
34931;BME280;21134;49.646;8.560;2023-03-18T02:04:07;100029.53;;;9.54;87.21
34931;BME280;21134;49.646;8.560;2023-03-18T02:06:34;100026.13;;;9.53;87.38
34931;BME280;21134;49.646;8.560;2023-03-18T02:09:02;100021.03;;;9.52;87.72
34931;BME280;21134;49.646;8.560;2023-03-18T02:11:32;100018.47;;;9.52;88.17
34931;BME280;21134;49.646;8.560;2023-03-18T02:14:00;100012.50;;;9.50;87.46
34931;BME280;21134;49.646;8.560;2023-03-18T02:16:31;100013.38;;;9.49;87.96
34931;BME280;21134;49.646;8.560;2023-03-18T02:19:10;100003.16;;;9.49;88.04
34931;BME280;21134;49.646;8.560;2023-03-18T02:21:45;100004.88;;;9.48;87.73
34931;BME280;21134;49.646;8.560;2023-03-18T02:24:23;100009.97;;;9.50;87.16
34931;BME280;21134;49.646;8.560;2023-03-18T02:26:57;100012.53;;;9.51;86.89
34931;BME280;21134;49.646;8.560;2023-03-18T02:29:28;100020.16;;;9.54;86.27
34931;BME280;21134;49.646;8.560;2023-03-18T02:31:59;100026.94;;;9.57;86.63
34931;BME280;21134;49.646;8.560;2023-03-18T02:34:27;100029.53;;;9.55;86.49
34931;BME280;21134;49.646;8.560;2023-03-18T02:36:55;100027.84;;;9.54;86.81
34931;BME280;21134;49.646;8.560;2023-03-18T02:39:22;100026.13;;;9.52;86.59
34931;BME280;21134;49.646;8.560;2023-03-18T02:41:49;100028.69;;;9.50;87.13
34931;BME280;21134;49.646;8.560;2023-03-18T02:44:16;100028.69;;;9.50;86.88
34931;BME280;21134;49.646;8.560;2023-03-18T02:46:50;100026.13;;;9.50;87.12
34931;BME280;21134;49.646;8.560;2023-03-18T02:49:19;100023.59;;;9.49;87.38
34931;BME280;21134;49.646;8.560;2023-03-18T02:51:47;100019.31;;;9.49;87.61
34931;BME280;21134;49.646;8.560;2023-03-18T02:54:20;100011.69;;;9.48;87.77
34931;BME280;21134;49.646;8.560;2023-03-18T02:56:47;100018.47;;;9.47;88.61
34931;BME280;21134;49.646;8.560;2023-03-18T02:59:14;100021.03;;;9.47;89.19
34931;BME280;21134;49.646;8.560;2023-03-18T03:01:43;100018.47;;;9.47;89.67
34931;BME280;21134;49.646;8.560;2023-03-18T03:04:13;100016.78;;;9.46;89.29
34931;BME280;21134;49.646;8.560;2023-03-18T03:06:41;100021.91;;;9.48;89.53
34931;BME280;21134;49.646;8.560;2023-03-18T03:09:10;100023.59;;;9.47;88.92
34931;BME280;21134;49.646;8.560;2023-03-18T03:11:37;100039.75;;;9.52;88.80
34931;BME280;21134;49.646;8.560;2023-03-18T03:14:05;100048.25;;;9.56;88.06
34931;BME280;21134;49.646;8.560;2023-03-18T03:16:32;100055.91;;;9.59;87.16
34931;BME280;21134;49.646;8.560;2023-03-18T03:18:59;100052.50;;;9.59;87.52
34931;BME280;21134;49.646;8.560;2023-03-18T03:21:27;100051.63;;;9.57;87.82
34931;BME280;21134;49.646;8.560;2023-03-18T03:23:53;100051.66;;;9.55;87.92
34931;BME280;21134;49.646;8.560;2023-03-18T03:26:20;100044.88;;;9.54;88.74
34931;BME280;21134;49.646;8.560;2023-03-18T03:28:47;100045.72;;;9.51;89.61
34931;BME280;21134;49.646;8.560;2023-03-18T03:31:13;100047.41;;;9.49;89.67
34931;BME280;21134;49.646;8.560;2023-03-18T03:33:41;100046.56;;;9.47;90.15
34931;BME280;21134;49.646;8.560;2023-03-18T03:36:09;100044.03;;;9.46;90.21
34931;BME280;21134;49.646;8.560;2023-03-18T03:38:38;100038.91;;;9.44;90.36
34931;BME280;21134;49.646;8.560;2023-03-18T03:41:05;100045.72;;;9.44;90.70
34931;BME280;21134;49.646;8.560;2023-03-18T03:43:34;100053.38;;;9.44;91.05
34931;BME280;21134;49.646;8.560;2023-03-18T03:46:01;100051.69;;;9.44;90.74
34931;BME280;21134;49.646;8.560;2023-03-18T03:48:27;100055.94;;;9.44;90.73
34931;BME280;21134;49.646;8.560;2023-03-18T03:50:54;100060.22;;;9.43;90.53
34931;BME280;21134;49.646;8.560;2023-03-18T03:53:21;100057.66;;;9.45;90.42
34931;BME280;21134;49.646;8.560;2023-03-18T03:55:50;100058.50;;;9.45;90.03
34931;BME280;21134;49.646;8.560;2023-03-18T03:58:16;100050.84;;;9.44;89.94
34931;BME280;21134;49.646;8.560;2023-03-18T04:00:43;100055.94;;;9.44;90.28
34931;BME280;21134;49.646;8.560;2023-03-18T04:03:09;100052.56;;;9.42;90.32
34931;BME280;21134;49.646;8.560;2023-03-18T04:05:36;100050.88;;;9.39;90.80
34931;BME280;21134;49.646;8.560;2023-03-18T04:08:03;100050.88;;;9.39;90.94
34931;BME280;21134;49.646;8.560;2023-03-18T04:10:29;100048.31;;;9.39;90.93
34931;BME280;21134;49.646;8.560;2023-03-18T04:12:57;100051.72;;;9.38;90.70
34931;BME280;21134;49.646;8.560;2023-03-18T04:15:23;100056.81;;;9.40;90.48
34931;BME280;21134;49.646;8.560;2023-03-18T04:17:50;100051.72;;;9.40;89.67
34931;BME280;21134;49.646;8.560;2023-03-18T04:20:17;100061.06;;;9.41;88.83
34931;BME280;21134;49.646;8.560;2023-03-18T04:22:44;100057.66;;;9.43;88.28
34931;BME280;21134;49.646;8.560;2023-03-18T04:25:11;100054.25;;;9.43;86.97
34931;BME280;21134;49.646;8.560;2023-03-18T04:27:39;100057.66;;;9.46;86.99
34931;BME280;21134;49.646;8.560;2023-03-18T04:30:08;100057.66;;;9.45;87.21
34931;BME280;21134;49.646;8.560;2023-03-18T04:32:36;100065.31;;;9.43;86.56
34931;BME280;21134;49.646;8.560;2023-03-18T04:35:03;100076.38;;;9.41;85.23
34931;BME280;21134;49.646;8.560;2023-03-18T04:37:29;100078.09;;;9.43;84.40
34931;BME280;21134;49.646;8.560;2023-03-18T04:39:57;100072.16;;;9.41;84.11
34931;BME280;21134;49.646;8.560;2023-03-18T04:42:24;100073.84;;;9.42;83.55
34931;BME280;21134;49.646;8.560;2023-03-18T04:44:51;100071.28;;;9.41;83.15
34931;BME280;21134;49.646;8.560;2023-03-18T04:47:19;100066.19;;;9.36;83.33
34931;BME280;21134;49.646;8.560;2023-03-18T04:49:45;100079.81;;;9.34;83.23
34931;BME280;21134;49.646;8.560;2023-03-18T04:52:12;100078.09;;;9.31;82.87
34931;BME280;21134;49.646;8.560;2023-03-18T04:54:38;100088.34;;;9.29;82.10
34931;BME280;21134;49.646;8.560;2023-03-18T04:57:05;100082.41;;;9.26;82.33
34931;BME280;21134;49.646;8.560;2023-03-18T04:59:32;100071.34;;;9.22;82.36
34931;BME280;21134;49.646;8.560;2023-03-18T05:01:58;100069.66;;;9.14;83.31
34931;BME280;21134;49.646;8.560;2023-03-18T05:04:26;100061.16;;;9.07;83.18
34931;BME280;21134;49.646;8.560;2023-03-18T05:06:53;100065.41;;;9.02;84.37
34931;BME280;21134;49.646;8.560;2023-03-18T05:09:19;100072.25;;;9.00;84.02
34931;BME280;21134;49.646;8.560;2023-03-18T05:11:46;100067.13;;;9.00;84.52
34931;BME280;21134;49.646;8.560;2023-03-18T05:14:12;100066.28;;;9.01;84.04
34931;BME280;21134;49.646;8.560;2023-03-18T05:16:39;100063.72;;;9.02;84.28
34931;BME280;21134;49.646;8.560;2023-03-18T05:19:07;100064.56;;;9.01;84.54
34931;BME280;21134;49.646;8.560;2023-03-18T05:21:35;100067.97;;;9.00;84.58
34931;BME280;21134;49.646;8.560;2023-03-18T05:24:02;100071.38;;;9.01;84.78
34931;BME280;21134;49.646;8.560;2023-03-18T05:26:28;100070.53;;;9.00;84.59
34931;BME280;21134;49.646;8.560;2023-03-18T05:28:55;100073.91;;;9.02;84.01
34931;BME280;21134;49.646;8.560;2023-03-18T05:31:23;100079.88;;;9.04;83.46
34931;BME280;21134;49.646;8.560;2023-03-18T05:33:49;100078.16;;;9.05;83.03
34931;BME280;21134;49.646;8.560;2023-03-18T05:36:16;100080.72;;;9.06;82.65
34931;BME280;21134;49.646;8.560;2023-03-18T05:38:44;100083.28;;;9.13;82.31
34931;BME280;21134;49.646;8.560;2023-03-18T05:41:11;100084.94;;;9.15;81.61
34931;BME280;21134;49.646;8.560;2023-03-18T05:43:37;100089.22;;;9.19;81.08
34931;BME280;21134;49.646;8.560;2023-03-18T05:46:04;100083.22;;;9.25;80.43
34931;BME280;21134;49.646;8.560;2023-03-18T05:48:30;100095.16;;;9.26;79.72
34931;BME280;21134;49.646;8.560;2023-03-18T05:50:57;100088.34;;;9.29;79.48
34931;BME280;21134;49.646;8.560;2023-03-18T05:53:23;100090.03;;;9.37;78.75
34931;BME280;21134;49.646;8.560;2023-03-18T05:55:51;100085.78;;;9.39;78.53
34931;BME280;21134;49.646;8.560;2023-03-18T05:58:18;100090.88;;;9.45;78.21
34931;BME280;21134;49.646;8.560;2023-03-18T06:00:45;100093.41;;;9.45;77.85
34931;BME280;21134;49.646;8.560;2023-03-18T06:03:11;100099.38;;;9.45;78.04
34931;BME280;21134;49.646;8.560;2023-03-18T06:05:38;100099.34;;;9.51;76.87
34931;BME280;21134;49.646;8.560;2023-03-18T06:08:04;100101.03;;;9.52;76.60
34931;BME280;21134;49.646;8.560;2023-03-18T06:10:32;100101.06;;;9.54;76.28
34931;BME280;21134;49.646;8.560;2023-03-18T06:13:00;100104.44;;;9.58;76.03
34931;BME280;21134;49.646;8.560;2023-03-18T06:15:26;100107.78;;;9.69;75.57
34931;BME280;21134;49.646;8.560;2023-03-18T06:17:52;100102.69;;;9.70;75.39
34931;BME280;21134;49.646;8.560;2023-03-18T06:20:19;100108.63;;;9.74;74.71
34931;BME280;21134;49.646;8.560;2023-03-18T06:22:46;100106.91;;;9.76;75.36
34931;BME280;21134;49.646;8.560;2023-03-18T06:25:15;100113.72;;;9.83;73.90
34931;BME280;21134;49.646;8.560;2023-03-18T06:27:42;100111.97;;;9.88;74.06
34931;BME280;21134;49.646;8.560;2023-03-18T06:30:11;100111.97;;;9.88;73.77
34931;BME280;21134;49.646;8.560;2023-03-18T06:32:38;100107.72;;;9.89;74.22
34931;BME280;21134;49.646;8.560;2023-03-18T06:35:05;100109.41;;;9.91;73.26
34931;BME280;21134;49.646;8.560;2023-03-18T06:37:32;100116.19;;;9.97;73.04
34931;BME280;21134;49.646;8.560;2023-03-18T06:39:58;100110.22;;;10.02;73.69
34931;BME280;21134;49.646;8.560;2023-03-18T06:42:25;100114.44;;;10.08;72.94
34931;BME280;21134;49.646;8.560;2023-03-18T06:44:51;100110.16;;;10.15;73.07
34931;BME280;21134;49.646;8.560;2023-03-18T06:47:20;100114.41;;;10.14;73.12
34931;BME280;21134;49.646;8.560;2023-03-18T06:49:47;100117.81;;;10.16;72.39
34931;BME280;21134;49.646;8.560;2023-03-18T06:52:14;100118.63;;;10.23;71.73
34931;BME280;21134;49.646;8.560;2023-03-18T06:54:41;100123.72;;;10.23;71.72
34931;BME280;21134;49.646;8.560;2023-03-18T06:57:08;100119.50;;;10.28;71.64
34931;BME280;21134;49.646;8.560;2023-03-18T06:59:35;100121.94;;;10.42;72.01
34931;BME280;21134;49.646;8.560;2023-03-18T07:02:02;100125.31;;;10.50;70.68
34931;BME280;21134;49.646;8.560;2023-03-18T07:04:30;100127.84;;;10.56;70.83
34931;BME280;21134;49.646;8.560;2023-03-18T07:06:58;100128.56;;;10.70;69.06
34931;BME280;21134;49.646;8.560;2023-03-18T07:09:25;100122.53;;;10.78;70.13
34931;BME280;21134;49.646;8.560;2023-03-18T07:11:52;100134.41;;;10.88;69.17
34931;BME280;21134;49.646;8.560;2023-03-18T07:14:18;100136.91;;;10.94;68.76
34931;BME280;21134;49.646;8.560;2023-03-18T07:16:45;100132.56;;;11.05;68.73
34931;BME280;21134;49.646;8.560;2023-03-18T07:19:12;100139.31;;;11.12;68.83
34931;BME280;21134;49.646;8.560;2023-03-18T07:21:40;100143.47;;;11.27;67.54
34931;BME280;21134;49.646;8.560;2023-03-18T07:24:08;100140.81;;;11.35;68.11
34931;BME280;21134;49.646;8.560;2023-03-18T07:26:35;100147.56;;;11.42;67.71
34931;BME280;21134;49.646;8.560;2023-03-18T07:29:02;100151.66;;;11.61;65.81
34931;BME280;21134;49.646;8.560;2023-03-18T07:31:29;100146.28;;;11.83;65.04
34931;BME280;21134;49.646;8.560;2023-03-18T07:33:55;100143.69;;;11.89;64.70
34931;BME280;21134;49.646;8.560;2023-03-18T07:36:22;100147.03;;;11.94;65.17
34931;BME280;21134;49.646;8.560;2023-03-18T07:38:50;100151.19;;;12.04;64.64
34931;BME280;21134;49.646;8.560;2023-03-18T07:41:17;100140.91;;;12.07;62.55
34931;BME280;21134;49.646;8.560;2023-03-18T07:43:43;100148.47;;;12.15;63.86
34931;BME280;21134;49.646;8.560;2023-03-18T07:46:10;100143.31;;;12.20;62.35
34931;BME280;21134;49.646;8.560;2023-03-18T07:48:36;100142.28;;;12.31;63.54
34931;BME280;21134;49.646;8.560;2023-03-18T07:51:03;100156.69;;;12.40;62.34
34931;BME280;21134;49.646;8.560;2023-03-18T07:53:30;100150.56;;;12.50;62.18
34931;BME280;21134;49.646;8.560;2023-03-18T07:55:57;100139.38;;;12.56;61.36
34931;BME280;21134;49.646;8.560;2023-03-18T07:58:24;100146.00;;;12.69;60.84
34931;BME280;21134;49.646;8.560;2023-03-18T08:00:52;100138.19;;;12.77;61.29
34931;BME280;21134;49.646;8.560;2023-03-18T08:03:18;100135.59;;;12.80;61.22
34931;BME280;21134;49.646;8.560;2023-03-18T08:05:45;100142.31;;;12.87;60.31
34931;BME280;21134;49.646;8.560;2023-03-18T08:08:11;100133.47;;;13.03;59.55
34931;BME280;21134;49.646;8.560;2023-03-18T08:10:38;100137.59;;;13.14;59.21
34931;BME280;21134;49.646;8.560;2023-03-18T08:13:06;100140.00;;;13.23;59.41
34931;BME280;21134;49.646;8.560;2023-03-18T08:15:32;100145.97;;;13.23;59.15
34931;BME280;21134;49.646;8.560;2023-03-18T08:17:59;100148.28;;;13.40;58.81
34931;BME280;21134;49.646;8.560;2023-03-18T08:20:25;100156.63;;;13.52;58.14
34931;BME280;21134;49.646;8.560;2023-03-18T08:22:53;100152.09;;;13.66;58.51
34931;BME280;21134;49.646;8.560;2023-03-18T08:25:20;100162.28;;;13.70;58.01
34931;BME280;21134;49.646;8.560;2023-03-18T08:27:47;100153.84;;;13.64;57.45
34931;BME280;21134;49.646;8.560;2023-03-18T08:30:16;100162.28;;;13.70;57.17
34931;BME280;21134;49.646;8.560;2023-03-18T08:32:42;100164.63;;;13.83;57.66
34931;BME280;21134;49.646;8.560;2023-03-18T08:35:10;100164.09;;;14.09;57.47
34931;BME280;21134;49.646;8.560;2023-03-18T08:37:37;100164.09;;;14.09;57.26
34931;BME280;21134;49.646;8.560;2023-03-18T08:40:05;100161.47;;;14.12;57.25
34931;BME280;21134;49.646;8.560;2023-03-18T08:42:33;100165.53;;;14.22;56.05
34931;BME280;21134;49.646;8.560;2023-03-18T08:45:00;100166.25;;;14.29;55.96
34931;BME280;21134;49.646;8.560;2023-03-18T08:47:30;100156.34;;;14.52;54.96
34931;BME280;21134;49.646;8.560;2023-03-18T08:49:56;100158.84;;;14.55;52.96
34931;BME280;21134;49.646;8.560;2023-03-18T08:52:23;100155.38;;;14.56;53.59
34931;BME280;21134;49.646;8.560;2023-03-18T08:54:49;100160.03;;;14.78;53.72
34931;BME280;21134;49.646;8.560;2023-03-18T08:57:16;100160.41;;;14.98;51.94
34931;BME280;21134;49.646;8.560;2023-03-18T08:59:43;100160.31;;;15.01;52.08
34931;BME280;21134;49.646;8.560;2023-03-18T09:02:13;100162.06;;;15.01;52.93
34931;BME280;21134;49.646;8.560;2023-03-18T09:04:42;100159.50;;;14.99;53.22
34931;BME280;21134;49.646;8.560;2023-03-18T09:07:09;100167.09;;;15.05;53.10
34931;BME280;21134;49.646;8.560;2023-03-18T09:09:35;100164.09;;;15.22;51.62
34931;BME280;21134;49.646;8.560;2023-03-18T09:12:02;100162.94;;;15.34;51.30
34931;BME280;21134;49.646;8.560;2023-03-18T09:14:29;100159.88;;;15.20;51.22
34931;BME280;21134;49.646;8.560;2023-03-18T09:16:57;100169.13;;;15.27;51.77
34931;BME280;21134;49.646;8.560;2023-03-18T09:19:24;100165.16;;;15.48;51.47
34931;BME280;21134;49.646;8.560;2023-03-18T09:21:51;100159.13;;;15.47;50.13
34931;BME280;21134;49.646;8.560;2023-03-18T09:24:18;100163.19;;;15.57;50.02
34931;BME280;21134;49.646;8.560;2023-03-18T09:26:44;100158.72;;;15.63;49.73
34931;BME280;21134;49.646;8.560;2023-03-18T09:29:11;100149.41;;;15.57;50.24
34931;BME280;21134;49.646;8.560;2023-03-18T09:31:38;100150.06;;;15.65;49.50
34931;BME280;21134;49.646;8.560;2023-03-18T09:34:04;100148.28;;;15.69;50.69
34931;BME280;21134;49.646;8.560;2023-03-18T09:36:31;100143.00;;;15.73;50.53
34931;BME280;21134;49.646;8.560;2023-03-18T09:38:59;100135.88;;;15.81;50.86
34931;BME280;21134;49.646;8.560;2023-03-18T09:41:32;100141.03;;;15.81;51.06
34931;BME280;21134;49.646;8.560;2023-03-18T09:44:10;100135.03;;;15.83;51.06
34931;BME280;21134;49.646;8.560;2023-03-18T09:46:52;100136.63;;;15.85;51.21
34931;BME280;21134;49.646;8.560;2023-03-18T09:49:35;100135.88;;;15.81;50.26
34931;BME280;21134;49.646;8.560;2023-03-18T09:52:14;100130.28;;;15.97;50.28
34931;BME280;21134;49.646;8.560;2023-03-18T09:54:48;100133.38;;;16.10;51.25
34931;BME280;21134;49.646;8.560;2023-03-18T09:57:22;100128.91;;;16.15;50.33
34931;BME280;21134;49.646;8.560;2023-03-18T09:59:52;100133.78;;;16.24;50.12
34931;BME280;21134;49.646;8.560;2023-03-18T10:02:22;100131.25;;;16.22;49.14
34931;BME280;21134;49.646;8.560;2023-03-18T10:04:52;100130.59;;;16.16;49.35
34931;BME280;21134;49.646;8.560;2023-03-18T10:07:23;100128.84;;;16.16;49.53
34931;BME280;21134;49.646;8.560;2023-03-18T10:09:55;100124.06;;;16.34;50.04
34931;BME280;21134;49.646;8.560;2023-03-18T10:12:29;100131.19;;;16.52;48.82
34931;BME280;21134;49.646;8.560;2023-03-18T10:15:03;100132.34;;;16.43;49.05
34931;BME280;21134;49.646;8.560;2023-03-18T10:17:37;100124.09;;;16.32;49.65
34931;BME280;21134;49.646;8.560;2023-03-18T10:20:14;100130.34;;;16.23;49.78
34931;BME280;21134;49.646;8.560;2023-03-18T10:22:51;100129.44;;;16.26;49.97
34931;BME280;21134;49.646;8.560;2023-03-18T10:25:24;100127.78;;;16.23;50.93
34931;BME280;21134;49.646;8.560;2023-03-18T10:28:07;100127.19;;;16.15;50.46
34931;BME280;21134;49.646;8.560;2023-03-18T10:30:47;100130.84;;;16.08;49.88
34931;BME280;21134;49.646;8.560;2023-03-18T10:33:25;100139.09;;;16.19;50.56
34931;BME280;21134;49.646;8.560;2023-03-18T10:36:02;100134.19;;;16.10;50.75
34931;BME280;21134;49.646;8.560;2023-03-18T10:38:32;100132.06;;;16.24;49.80
34931;BME280;21134;49.646;8.560;2023-03-18T10:41:13;100130.34;;;16.25;48.83
34931;BME280;21134;49.646;8.560;2023-03-18T10:43:39;100126.41;;;16.40;49.84
34931;BME280;21134;49.646;8.560;2023-03-18T10:46:10;100122.69;;;16.50;49.07
34931;BME280;21134;49.646;8.560;2023-03-18T10:48:42;100119.59;;;16.65;49.71
34931;BME280;21134;49.646;8.560;2023-03-18T10:51:14;100117.59;;;16.75;50.07
34931;BME280;21134;49.646;8.560;2023-03-18T10:53:45;100123.16;;;16.89;49.26
34931;BME280;21134;49.646;8.560;2023-03-18T10:56:16;100117.28;;;16.84;47.95
34931;BME280;21134;49.646;8.560;2023-03-18T10:58:43;100124.53;;;17.00;46.10
34931;BME280;21134;49.646;8.560;2023-03-18T11:01:13;100116.03;;;16.96;46.74
34931;BME280;21134;49.646;8.560;2023-03-18T11:03:43;100120.75;;;17.10;46.91
34931;BME280;21134;49.646;8.560;2023-03-18T11:06:16;100118.78;;;17.16;47.35
34931;BME280;21134;49.646;8.560;2023-03-18T11:08:45;100118.59;;;17.23;46.93
34931;BME280;21134;49.646;8.560;2023-03-18T11:11:18;100116.38;;;17.37;47.52
34931;BME280;21134;49.646;8.560;2023-03-18T11:13:48;100113.38;;;17.49;47.51
34931;BME280;21134;49.646;8.560;2023-03-18T11:16:23;100107.06;;;17.56;45.80
34931;BME280;21134;49.646;8.560;2023-03-18T11:18:50;100100.94;;;17.59;45.96
34931;BME280;21134;49.646;8.560;2023-03-18T11:21:19;100100.31;;;17.77;46.94
34931;BME280;21134;49.646;8.560;2023-03-18T11:23:52;100112.88;;;17.86;46.79
34931;BME280;21134;49.646;8.560;2023-03-18T11:26:47;100110.66;;;17.76;46.65
34931;BME280;21134;49.646;8.560;2023-03-18T11:29:21;100113.25;;;17.77;46.94
34931;BME280;21134;49.646;8.560;2023-03-18T11:31:50;100108.72;;;17.82;46.75
34931;BME280;21134;49.646;8.560;2023-03-18T11:34:19;100112.31;;;18.02;46.71
34931;BME280;21134;49.646;8.560;2023-03-18T11:36:55;100108.09;;;17.99;45.53
34931;BME280;21134;49.646;8.560;2023-03-18T11:39:24;100113.50;;;17.93;46.04
34931;BME280;21134;49.646;8.560;2023-03-18T11:41:53;100110.41;;;18.07;46.57
34931;BME280;21134;49.646;8.560;2023-03-18T11:44:25;100099.81;;;18.13;46.08
34931;BME280;21134;49.646;8.560;2023-03-18T11:46:54;100096.81;;;18.24;45.92
34931;BME280;21134;49.646;8.560;2023-03-18T11:49:25;100098.28;;;18.07;46.49
34931;BME280;21134;49.646;8.560;2023-03-18T11:51:57;100094.41;;;18.19;46.59
34931;BME280;21134;49.646;8.560;2023-03-18T11:54:49;100096.38;;;18.34;46.23
34931;BME280;21134;49.646;8.560;2023-03-18T11:57:26;100097.72;;;18.23;46.42
34931;BME280;21134;49.646;8.560;2023-03-18T12:00:04;100089.09;;;18.22;46.88
34931;BME280;21134;49.646;8.560;2023-03-18T12:02:54;100084.41;;;18.32;46.46
34931;BME280;21134;49.646;8.560;2023-03-18T12:05:38;100084.81;;;18.43;46.69
34931;BME280;21134;49.646;8.560;2023-03-18T12:08:15;100075.28;;;18.44;46.50
34931;BME280;21134;49.646;8.560;2023-03-18T12:10:48;100073.13;;;18.55;45.00
34931;BME280;21134;49.646;8.560;2023-03-18T12:13:29;100083.09;;;18.64;45.47
34931;BME280;21134;49.646;8.560;2023-03-18T12:16:03;100068.22;;;18.47;44.26
34931;BME280;21134;49.646;8.560;2023-03-18T12:18:53;100070.56;;;18.53;45.12
34931;BME280;21134;49.646;8.560;2023-03-18T12:21:49;100063.38;;;18.82;45.79
34931;BME280;21134;49.646;8.560;2023-03-18T12:24:29;100063.53;;;18.99;44.62
34931;BME280;21134;49.646;8.560;2023-03-18T12:27:02;100060.66;;;19.05;43.19
34931;BME280;21134;49.646;8.560;2023-03-18T12:29:50;100055.78;;;18.98;43.33
34931;BME280;21134;49.646;8.560;2023-03-18T12:32:25;100056.31;;;19.06;43.76
34931;BME280;21134;49.646;8.560;2023-03-18T12:35:13;100057.09;;;19.08;44.26
34931;BME280;21134;49.646;8.560;2023-03-18T12:37:55;100052.63;;;19.12;43.83
34931;BME280;21134;49.646;8.560;2023-03-18T12:40:36;100055.72;;;19.20;43.12
34931;BME280;21134;49.646;8.560;2023-03-18T12:43:25;100057.41;;;19.21;42.77
34931;BME280;21134;49.646;8.560;2023-03-18T12:46:00;100053.19;;;19.18;42.71
34931;BME280;21134;49.646;8.560;2023-03-18T12:48:31;100046.59;;;18.91;42.76
34931;BME280;21134;49.646;8.560;2023-03-18T12:51:01;100043.16;;;18.90;42.81
34931;BME280;21134;49.646;8.560;2023-03-18T12:53:32;100050.34;;;19.04;43.67
34931;BME280;21134;49.646;8.560;2023-03-18T12:56:03;100051.06;;;19.08;44.01
34931;BME280;21134;49.646;8.560;2023-03-18T12:58:36;100048.31;;;19.31;43.92
34931;BME280;21134;49.646;8.560;2023-03-18T13:01:08;100059.66;;;19.28;42.72
34931;BME280;21134;49.646;8.560;2023-03-18T13:03:43;100049.34;;;19.27;42.70
34931;BME280;21134;49.646;8.560;2023-03-18T13:06:14;100050.41;;;19.23;42.07